Terminal Aerodrome Forecast
Issued by NWS Boston, MA

Home | Current Version | Previous Version | Text Only | Print | Product List | Glossary On
Versions: 1 2 3 4 5 6 7 8 9 10 11 12 13 14 15 16 17 18 19 20 21 22 23 24 25 26 27 28 29 30 31 32 33 34 35 36 37 38 39 40 41 42 43 44 45 46 47 48 49 50
000
FTUS41 KBOX 011138
TAFBOS
TAF
KBOS 011138Z 0112/0218 25007KT P6SM FEW200
     FM011700 29011KT P6SM SCT120
     FM012100 30009KT P6SM BKN100
     FM020400 34007KT P6SM OVC080
     FM020700 01007KT 2SM -SN OVC050
     FM020900 04008KT 1SM -SN OVC015
     FM021200 05011G20KT 1/4SM +SN OVC003
     FM021500 06017G30KT 1/4SM +SN OVC008=

USA.gov is the U.S. government's official web portal to all federal, state and local government web resources and services.